This is the latest recevied weather packets stored in our database for station/object IZ1BLA-10. If no packets are shown the sender has not sent any weather packets the latest 10 day(s).
| Time | Temp. | Humidity | Pressure | Rain* | Wind** | Luminosity | Snow |
|---|---|---|---|---|---|---|---|
| 1777261136 | 15.56° C | 63% | 1017.8 hPa | - | - | - | - |
| 1777260535 | 15° C | 66% | 1018 hPa | - | - | - | - |
| 1777259935 | 13.89° C | 71% | 1018.3 hPa | - | - | - | - |
| 1777259335 | 15° C | 66% | 1018.1 hPa | - | - | - | - |
| 1777258735 | 13.89° C | 69% | 1018.3 hPa | - | - | - | - |
| 1777258135 | 13.89° C | 72% | 1018.3 hPa | - | - | - | - |
| 1777257535 | 15° C | 67% | 1018 hPa | - | - | - | - |
| 1777256935 | 14.44° C | 71% | 1018.1 hPa | - | - | - | - |
| 1777256335 | 14.44° C | 72% | 1018.1 hPa | - | - | - | - |
| 1777255735 | 15° C | 67% | 1017.9 hPa | - | - | - | - |
| 1777255135 | 14.44° C | 69% | 1017.9 hPa | - | - | - | - |
| 1777254535 | 14.44° C | 71% | 1017.9 hPa | - | - | - | - |
| 1777253935 | 14.44° C | 71% | 1018 hPa | - | - | - | - |
| 1777253335 | 14.44° C | 72% | 1018 hPa | - | - | - | - |
| 1777252735 | 13.89° C | 75% | 1018.2 hPa | - | - | - | - |
| 1777252135 | 14.44° C | 71% | 1018 hPa | - | - | - | - |
| 1777251535 | 15° C | 70% | 1018.1 hPa | - | - | - | - |
| 1777250934 | 14.44° C | 74% | 1018.3 hPa | - | - | - | - |
| 1777250335 | 14.44° C | 72% | 1018.4 hPa | - | - | - | - |
| 1777249735 | 13.89° C | 78% | 1018.7 hPa | - | - | - | - |
| 1777249134 | 15° C | 72% | 1018.3 hPa | - | - | - | - |
| 1777248535 | 15° C | 72% | 1018.3 hPa | - | - | - | - |
| 1777247935 | 15° C | 72% | 1018.4 hPa | - | - | - | - |
| 1777247335 | 14.44° C | 74% | 1018.5 hPa | - | - | - | - |
| 1777246735 | 14.44° C | 77% | 1018.6 hPa | - | - | - | - |
* Rain since midnight (hover to see other rain measurements)
** Current wind speed in m/s (hover to see current wind gust speed)